createdAt,value
2018-08-04T00:00:50.109Z,7.90
2018-08-04T00:03:19.572Z,9.23
2018-08-04T00:05:49.040Z,9.10
2018-08-04T00:08:18.289Z,8.87
2018-08-04T00:10:48.783Z,8.93
2018-08-04T00:13:18.219Z,8.60
2018-08-04T00:15:47.561Z,9.80
2018-08-04T00:18:17.012Z,10.07
2018-08-04T00:20:46.624Z,9.77
2018-08-04T00:23:15.950Z,10.53
2018-08-04T00:25:45.381Z,10.80
2018-08-04T00:28:14.851Z,10.13
2018-08-04T00:30:44.407Z,9.87
2018-08-04T00:33:13.799Z,9.63
2018-08-04T00:35:43.193Z,8.97
2018-08-04T00:38:12.643Z,9.10
2018-08-04T00:40:42.140Z,9.30
2018-08-04T00:43:11.509Z,10.17
2018-08-04T00:45:40.973Z,9.30
2018-08-04T00:48:10.474Z,8.97
2018-08-04T00:50:39.944Z,9.03
2018-08-04T00:53:09.492Z,8.97
2018-08-04T00:55:38.974Z,9.07
2018-08-04T00:58:08.450Z,9.03
2018-08-04T01:00:37.613Z,9.37
2018-08-04T01:03:09.652Z,9.30
2018-08-04T01:05:38.837Z,8.73
2018-08-04T01:08:08.081Z,8.50
2018-08-04T01:10:37.300Z,9.10
2018-08-04T01:13:06.570Z,8.20
2018-08-04T01:15:35.902Z,8.87
2018-08-04T01:18:05.830Z,8.77
2018-08-04T01:20:34.930Z,9.17
2018-08-04T01:23:04.133Z,9.47
2018-08-04T01:25:33.285Z,8.80
2018-08-04T01:28:02.503Z,8.67
2018-08-04T01:30:31.614Z,9.07
2018-08-04T01:33:00.710Z,9.43
2018-08-04T01:35:29.922Z,8.80
2018-08-04T01:37:59.093Z,9.37
2018-08-04T01:40:28.304Z,8.47
2018-08-04T01:42:57.492Z,9.17
2018-08-04T01:45:26.578Z,9.37
2018-08-04T01:47:55.954Z,8.83
2018-08-04T01:50:25.224Z,9.20
2018-08-04T01:52:53.915Z,9.17
2018-08-04T01:55:23.195Z,8.93
2018-08-04T01:57:52.734Z,9.00
2018-08-04T02:00:22.282Z,8.70
2018-08-04T02:02:52.082Z,9.10
2018-08-04T02:05:21.418Z,9.43
2018-08-04T02:07:50.687Z,9.37
2018-08-04T02:10:19.798Z,8.93
2018-08-04T02:12:48.879Z,9.60
2018-08-04T02:15:18.042Z,8.67
2018-08-04T02:17:47.094Z,8.60
2018-08-04T02:20:16.158Z,9.20
2018-08-04T02:22:45.166Z,9.30
2018-08-04T02:25:15.104Z,9.17
2018-08-04T02:27:44.226Z,8.83
2018-08-04T02:30:13.319Z,9.43
2018-08-04T02:32:42.420Z,9.07
2018-08-04T02:35:11.735Z,8.90
2018-08-04T02:37:41.980Z,8.03
2018-08-04T02:40:11.814Z,7.67
2018-08-04T02:42:40.923Z,8.30
2018-08-04T02:45:10.364Z,8.37
2018-08-04T02:47:39.530Z,8.63
2018-08-04T02:50:09.055Z,8.50
2018-08-04T02:52:38.318Z,8.00
2018-08-04T02:55:07.426Z,8.30
2018-08-04T02:57:36.584Z,8.10
2018-08-04T03:00:06.318Z,8.30
2018-08-04T03:02:35.578Z,7.60
2018-08-04T03:05:04.767Z,7.97
2018-08-04T03:07:33.918Z,8.40
2018-08-04T03:10:03.192Z,8.87
2018-08-04T03:12:32.327Z,9.40
2018-08-04T03:15:01.424Z,8.23
2018-08-04T03:17:30.652Z,9.10
2018-08-04T03:19:59.770Z,8.40
2018-08-04T03:22:28.857Z,9.27
2018-08-04T03:24:58.212Z,8.27
2018-08-04T03:27:27.458Z,8.50
2018-08-04T03:29:56.582Z,8.63
2018-08-04T03:32:25.768Z,9.17
2018-08-04T03:34:54.969Z,9.03
2018-08-04T03:37:24.135Z,9.30
2018-08-04T03:39:53.244Z,8.30
2018-08-04T03:42:24.415Z,7.93
2018-08-04T03:44:53.590Z,8.60
2018-08-04T03:47:22.667Z,9.10
2018-08-04T03:49:51.998Z,8.67
2018-08-04T03:52:21.325Z,9.03
2018-08-04T03:54:51.468Z,8.60
2018-08-04T03:57:21.569Z,9.00
2018-08-04T03:59:50.714Z,8.67
2018-08-04T04:02:21.155Z,8.53
2018-08-04T04:04:50.924Z,9.10
2018-08-04T04:07:23.215Z,8.83
2018-08-04T04:09:53.381Z,8.07
2018-08-04T04:12:24.496Z,8.60
2018-08-04T04:14:56.095Z,8.30
2018-08-04T04:17:27.015Z,7.97
2018-08-04T04:19:57.282Z,7.80
2018-08-04T04:22:28.550Z,9.27
2018-08-04T04:24:58.875Z,8.40
2018-08-04T04:27:30.321Z,8.33
2018-08-04T04:30:01.550Z,8.50
2018-08-04T04:32:32.594Z,7.80
2018-08-04T04:35:03.545Z,8.23
2018-08-04T04:37:33.352Z,7.87
2018-08-04T04:40:05.049Z,8.47
2018-08-04T04:42:35.036Z,8.40
2018-08-04T04:45:05.354Z,7.73
2018-08-04T04:47:34.563Z,8.93
2018-08-04T04:50:05.888Z,8.00
2018-08-04T04:52:37.020Z,7.50
2018-08-04T04:55:06.427Z,6.93
2018-08-04T04:57:35.603Z,7.47
2018-08-04T05:00:07.979Z,8.77
2018-08-04T05:02:37.856Z,7.40
2018-08-04T05:05:11.525Z,7.13
2018-08-04T05:07:41.746Z,7.80
2018-08-04T05:10:10.968Z,6.63
2018-08-04T05:12:41.381Z,7.27
2018-08-04T05:15:14.457Z,7.17
2018-08-04T05:17:47.296Z,6.73
2018-08-04T05:20:18.575Z,6.20
2018-08-04T05:22:49.522Z,6.10
2018-08-04T05:25:21.485Z,6.13
2018-08-04T05:27:52.111Z,6.90
2018-08-04T05:30:27.715Z,7.07
2018-08-04T05:32:56.833Z,6.03
2018-08-04T05:35:27.188Z,6.20
2018-08-04T05:37:56.429Z,6.37
2018-08-04T05:40:25.728Z,6.40
2018-08-04T05:42:56.714Z,6.73
2018-08-04T05:45:27.008Z,5.87
2018-08-04T05:47:56.286Z,6.70
2018-08-04T05:50:27.966Z,7.33
2018-08-04T05:52:58.638Z,6.37
2018-08-04T05:55:28.937Z,6.60
2018-08-04T05:58:00.358Z,6.40
2018-08-04T06:00:29.425Z,6.90
2018-08-04T06:02:58.544Z,6.67
2018-08-04T06:05:28.769Z,6.00
2018-08-04T06:07:57.827Z,6.00
2018-08-04T06:10:27.111Z,6.50
2018-08-04T06:12:56.460Z,6.20
2018-08-04T06:15:25.722Z,6.70
2018-08-04T06:17:54.885Z,6.53
2018-08-04T06:20:24.957Z,5.57
2018-08-04T06:22:54.169Z,6.47
2018-08-04T06:25:24.029Z,5.53
2018-08-04T06:27:53.243Z,5.60
2018-08-04T06:30:22.661Z,6.70
2018-08-04T06:32:54.175Z,5.40
2018-08-04T06:35:23.316Z,6.80
2018-08-04T06:37:52.405Z,6.90
2018-08-04T06:40:23.618Z,6.10
2018-08-04T06:42:52.921Z,5.87
2018-08-04T06:45:22.137Z,6.60
2018-08-04T06:47:51.201Z,5.97
2018-08-04T06:50:20.549Z,6.47
2018-08-04T06:52:49.744Z,6.87
2018-08-04T06:55:19.153Z,6.63
2018-08-04T06:57:48.521Z,6.63
2018-08-04T07:00:20.397Z,7.07
2018-08-04T07:02:49.489Z,6.60
2018-08-04T07:05:18.701Z,6.23
2018-08-04T07:07:48.386Z,6.00
2018-08-04T07:10:17.936Z,6.57
2018-08-04T07:12:47.195Z,6.80
2018-08-04T07:15:16.496Z,5.70
2018-08-04T07:17:45.777Z,7.13
2018-08-04T07:20:15.102Z,7.35
2018-08-04T07:22:44.486Z,7.30
2018-08-04T07:25:13.713Z,6.78
2018-08-04T07:27:42.766Z,7.05
2018-08-04T07:30:14.120Z,6.87
2018-08-04T07:32:44.573Z,6.63
2018-08-04T07:35:13.806Z,6.45
2018-08-04T07:37:44.276Z,6.83
2018-08-04T07:40:16.887Z,6.30
2018-08-04T07:42:46.156Z,7.05
2018-08-04T07:45:15.497Z,7.80
2018-08-04T07:47:44.730Z,7.43
2018-08-04T07:50:14.117Z,7.40
2018-08-04T07:52:43.370Z,7.00
2018-08-04T07:55:12.685Z,7.42
2018-08-04T07:57:41.963Z,6.40
2018-08-04T08:00:11.328Z,7.37
2018-08-04T08:02:40.515Z,7.87
2018-08-04T08:05:09.882Z,7.62
2018-08-04T08:07:38.549Z,7.70
2018-08-04T08:10:07.872Z,7.53
2018-08-04T08:12:36.953Z,7.53
2018-08-04T08:15:09.833Z,7.03
2018-08-04T08:17:38.939Z,7.90
2018-08-04T08:20:08.197Z,7.80
2018-08-04T08:22:43.618Z,7.70
2018-08-04T08:25:12.976Z,8.23
2018-08-04T08:27:42.170Z,8.20
2018-08-04T08:30:13.234Z,7.60
2018-08-04T08:32:42.553Z,7.60
2018-08-04T08:35:12.017Z,8.40
2018-08-04T08:37:41.544Z,7.37
2018-08-04T08:40:10.878Z,8.65
2018-08-04T08:42:39.959Z,8.20
2018-08-04T08:45:10.382Z,7.72
2018-08-04T08:47:39.541Z,7.97
2018-08-04T08:50:11.149Z,8.20
2018-08-04T08:52:40.541Z,8.10
2018-08-04T08:55:10.189Z,6.53
2018-08-04T08:57:39.477Z,6.70
2018-08-04T09:00:10.876Z,7.60
2018-08-04T09:02:40.272Z,7.12
2018-08-04T09:05:10.736Z,6.87
2018-08-04T09:07:40.200Z,7.10
2018-08-04T09:10:12.117Z,7.35
2018-08-04T09:12:42.206Z,6.83
2018-08-04T09:15:11.567Z,6.20
2018-08-04T09:17:40.653Z,6.55
2018-08-04T09:20:10.655Z,6.40
2018-08-04T09:22:39.941Z,7.20
2018-08-04T09:25:09.743Z,7.17
2018-08-04T09:27:39.379Z,5.83
2018-08-04T09:30:11.293Z,6.62
2018-08-04T09:32:41.409Z,6.53
2018-08-04T09:35:10.944Z,6.30
2018-08-04T09:37:40.047Z,6.22
2018-08-04T09:40:12.445Z,6.80
2018-08-04T09:42:41.740Z,6.20
2018-08-04T09:45:11.025Z,6.45
2018-08-04T09:47:41.090Z,6.47
2018-08-04T09:50:12.056Z,6.50
2018-08-04T09:52:41.650Z,6.55
2018-08-04T09:55:11.678Z,6.47
2018-08-04T09:57:42.812Z,6.42
2018-08-04T10:00:17.482Z,6.30
2018-08-04T10:02:46.794Z,6.30
2018-08-04T10:05:16.048Z,6.20
2018-08-04T10:07:45.259Z,6.67
2018-08-04T10:10:14.622Z,6.10
2018-08-04T10:12:43.912Z,6.28
2018-08-04T10:15:13.278Z,6.40
2018-08-04T10:17:42.529Z,6.12
2018-08-04T10:20:12.468Z,6.03
2018-08-04T10:22:41.774Z,6.45
2018-08-04T10:25:11.014Z,5.65
2018-08-04T10:27:40.142Z,5.87
2018-08-04T10:30:11.526Z,5.90
2018-08-04T10:32:40.938Z,5.65
2018-08-04T10:35:10.136Z,6.40
2018-08-04T10:37:39.277Z,5.90
2018-08-04T10:40:08.548Z,6.12
2018-08-04T10:42:37.727Z,5.75
2018-08-04T10:45:07.639Z,6.03
2018-08-04T10:47:36.842Z,6.22
2018-08-04T10:50:06.763Z,6.92
2018-08-04T10:52:35.972Z,6.12
2018-08-04T10:55:05.239Z,5.33
2018-08-04T10:57:34.584Z,5.62
2018-08-04T11:00:03.795Z,6.05
2018-08-04T11:02:33.352Z,5.60
2018-08-04T11:05:02.698Z,5.90
2018-08-04T11:07:32.004Z,6.03
2018-08-04T11:10:01.273Z,5.58
2018-08-04T11:12:30.538Z,5.15
2018-08-04T11:14:59.858Z,4.45
2018-08-04T11:17:29.159Z,5.33
2018-08-04T11:19:58.986Z,5.62
2018-08-04T11:22:28.186Z,5.22
2018-08-04T11:25:00.474Z,5.08
2018-08-04T11:27:29.874Z,5.75
2018-08-04T11:29:59.009Z,5.33
2018-08-04T11:32:28.154Z,4.70
2018-08-04T11:34:57.281Z,5.10
2018-08-04T11:37:27.336Z,5.20
2018-08-04T11:39:56.495Z,4.80
2018-08-04T11:42:25.924Z,4.67
2018-08-04T11:44:55.007Z,4.70
2018-08-04T11:47:24.155Z,4.60
2018-08-04T11:49:53.286Z,4.67
2018-08-04T11:52:22.520Z,4.62
2018-08-04T11:54:51.600Z,4.60
2018-08-04T11:57:20.696Z,4.25
2018-08-04T11:59:49.858Z,4.97
2018-08-04T12:02:19.020Z,4.35
2018-08-04T12:04:48.172Z,4.60
2018-08-04T12:07:17.320Z,5.22
2018-08-04T12:09:46.513Z,4.25
2018-08-04T12:12:15.644Z,4.25
2018-08-04T12:14:44.841Z,4.20
2018-08-04T12:17:14.174Z,4.08
2018-08-04T12:19:43.303Z,4.35
2018-08-04T12:22:12.573Z,4.85
2018-08-04T12:24:41.760Z,4.72
2018-08-04T12:27:11.163Z,4.33
2018-08-04T12:29:40.529Z,3.80
2018-08-04T12:32:09.735Z,3.87
2018-08-04T12:34:39.072Z,4.03
2018-08-04T12:37:08.415Z,3.87
2018-08-04T12:39:37.845Z,4.28
2018-08-04T12:42:07.397Z,4.03
2018-08-04T12:44:36.873Z,4.17
2018-08-04T12:47:06.240Z,4.60
2018-08-04T12:49:35.642Z,4.05
2018-08-04T12:52:04.774Z,3.83
2018-08-04T12:54:34.522Z,4.42
2018-08-04T12:57:03.974Z,3.90
2018-08-04T12:59:33.434Z,3.92
2018-08-04T13:02:02.537Z,4.10
2018-08-04T13:04:31.882Z,3.75
2018-08-04T13:07:01.017Z,3.75
2018-08-04T13:09:30.232Z,3.85
2018-08-04T13:11:59.390Z,3.85
2018-08-04T13:14:28.600Z,3.52
2018-08-04T13:16:57.782Z,4.08
2018-08-04T13:19:26.983Z,3.70
2018-08-04T13:21:56.171Z,4.17
2018-08-04T13:24:25.317Z,3.55
2018-08-04T13:26:54.550Z,3.58
2018-08-04T13:29:23.762Z,4.08
2018-08-04T13:31:52.890Z,4.28
2018-08-04T13:34:22.212Z,3.37
2018-08-04T13:36:51.524Z,4.05
2018-08-04T13:39:20.962Z,3.60
2018-08-04T13:41:50.159Z,3.50
2018-08-04T13:44:19.432Z,4.12
2018-08-04T13:46:48.905Z,4.12
2018-08-04T13:49:18.223Z,3.72
2018-08-04T13:51:47.476Z,3.30
2018-08-04T13:54:16.620Z,3.80
2018-08-04T13:56:45.715Z,3.45
2018-08-04T13:59:15.072Z,3.20
2018-08-04T14:01:44.312Z,3.67
2018-08-04T14:04:13.495Z,3.52
2018-08-04T14:06:42.688Z,4.25
2018-08-04T14:09:12.364Z,3.58
2018-08-04T14:11:41.604Z,3.67
2018-08-04T14:14:10.984Z,4.17
2018-08-04T14:16:40.234Z,3.30
2018-08-04T14:19:09.490Z,3.27
2018-08-04T14:21:38.728Z,3.87
2018-08-04T14:24:08.167Z,3.95
2018-08-04T14:26:37.343Z,3.75
2018-08-04T14:29:06.729Z,3.40
2018-08-04T14:31:36.069Z,3.65
2018-08-04T14:34:05.391Z,3.80
2018-08-04T14:36:34.667Z,3.62
2018-08-04T14:39:04.246Z,3.55
2018-08-04T14:41:33.519Z,3.60
2018-08-04T14:44:03.053Z,3.42
2018-08-04T14:46:32.356Z,3.60
2018-08-04T14:49:01.762Z,3.75
2018-08-04T14:51:31.063Z,3.70
2018-08-04T14:54:00.428Z,4.17
2018-08-04T14:56:29.794Z,3.67
2018-08-04T14:58:59.189Z,3.77
2018-08-04T15:01:28.359Z,3.85
2018-08-04T15:03:57.814Z,3.80
2018-08-04T15:06:27.112Z,3.35
2018-08-04T15:08:56.308Z,3.62
2018-08-04T15:11:25.616Z,4.05
2018-08-04T15:13:54.842Z,4.60
2018-08-04T15:16:24.027Z,3.60
2018-08-04T15:18:53.487Z,3.65
2018-08-04T15:21:22.714Z,4.12
2018-08-04T15:23:51.927Z,3.90
2018-08-04T15:26:21.117Z,3.60
2018-08-04T15:28:50.331Z,3.75
2018-08-04T15:31:19.513Z,3.55
2018-08-04T15:33:48.827Z,3.42
2018-08-04T15:36:18.040Z,4.08
2018-08-04T15:38:47.208Z,3.60
2018-08-04T15:41:16.461Z,3.58
2018-08-04T15:43:46.302Z,3.52
2018-08-04T15:46:15.530Z,3.37
2018-08-04T15:48:44.678Z,3.35
2018-08-04T15:51:13.819Z,2.98
2018-08-04T15:53:43.006Z,3.33
2018-08-04T15:56:12.156Z,3.15
2018-08-04T15:58:41.386Z,3.58
2018-08-04T16:01:10.553Z,3.75
2018-08-04T16:03:40.022Z,2.87
2018-08-04T16:06:09.442Z,3.62
2018-08-04T16:08:38.682Z,3.45
2018-08-04T16:11:07.983Z,3.40
2018-08-04T16:13:37.126Z,3.55
2018-08-04T16:16:06.271Z,3.77
2018-08-04T16:18:35.482Z,3.60
2018-08-04T16:21:04.708Z,3.40
2018-08-04T16:23:34.041Z,3.50
2018-08-04T16:26:03.403Z,3.45
2018-08-04T16:28:32.542Z,3.72
2018-08-04T16:31:01.742Z,3.72
2018-08-04T16:33:30.846Z,3.58
2018-08-04T16:36:00.013Z,3.52
2018-08-04T16:38:29.204Z,3.42
2018-08-04T16:40:58.406Z,2.98
2018-08-04T16:43:28.794Z,3.10
2018-08-04T16:45:58.011Z,3.08
2018-08-04T16:48:27.151Z,3.45
2018-08-04T16:50:56.383Z,2.98
2018-08-04T16:53:25.623Z,2.77
2018-08-04T16:55:55.817Z,2.95
2018-08-04T16:58:25.032Z,2.87
2018-08-04T17:00:54.243Z,2.95
2018-08-04T17:03:23.394Z,3.12
2018-08-04T17:05:52.530Z,3.22
2018-08-04T17:08:21.676Z,3.17
2018-08-04T17:10:50.765Z,3.17
2018-08-04T17:13:19.983Z,3.10
2018-08-04T17:15:49.069Z,3.30
2018-08-04T17:18:18.369Z,2.83
2018-08-04T17:20:47.384Z,2.70
2018-08-04T17:23:16.589Z,2.42
2018-08-04T17:25:45.756Z,2.98
2018-08-04T17:28:14.960Z,2.75
2018-08-04T17:30:44.130Z,2.85
2018-08-04T17:33:13.306Z,3.33
2018-08-04T17:35:42.571Z,3.10
2018-08-04T17:38:11.872Z,2.87
2018-08-04T17:40:41.148Z,2.98
2018-08-04T17:43:10.294Z,2.52
2018-08-04T17:45:39.399Z,3.08
2018-08-04T17:48:08.917Z,3.08
2018-08-04T17:50:38.380Z,2.80
2018-08-04T17:53:07.624Z,2.85
2018-08-04T17:55:36.847Z,3.20
2018-08-04T17:58:06.255Z,2.87
2018-08-04T18:00:35.496Z,3.08
2018-08-04T18:03:04.927Z,3.08
2018-08-04T18:05:34.107Z,2.85
2018-08-04T18:08:03.508Z,3.02
2018-08-04T18:10:32.676Z,2.80
2018-08-04T18:13:02.093Z,2.62
2018-08-04T18:15:31.283Z,2.52
2018-08-04T18:18:00.446Z,2.60
2018-08-04T18:20:30.523Z,2.70
2018-08-04T18:22:59.825Z,3.00
2018-08-04T18:25:28.899Z,3.00
2018-08-04T18:27:58.064Z,2.70
2018-08-04T18:30:27.292Z,2.70
2018-08-04T18:32:56.423Z,3.00
2018-08-04T18:35:25.588Z,2.80
2018-08-04T18:37:54.769Z,2.60
2018-08-04T18:40:24.081Z,2.60
2018-08-04T18:42:53.404Z,2.72
2018-08-04T18:45:22.623Z,2.90
2018-08-04T18:47:51.772Z,2.80
2018-08-04T18:50:20.900Z,2.77
2018-08-04T18:52:50.250Z,2.70
2018-08-04T18:55:19.287Z,2.77
2018-08-04T18:57:48.387Z,3.33
2018-08-04T19:00:17.499Z,2.80
2018-08-04T19:02:46.688Z,3.10
2018-08-04T19:05:15.798Z,3.08
2018-08-04T19:07:45.196Z,2.50
2018-08-04T19:10:14.295Z,2.60
2018-08-04T19:12:43.454Z,2.70
2018-08-04T19:15:12.536Z,2.65
2018-08-04T19:17:41.661Z,2.98
2018-08-04T19:20:10.794Z,3.00
2018-08-04T19:22:39.947Z,2.50
2018-08-04T19:25:09.223Z,2.83
2018-08-04T19:27:38.357Z,2.80
2018-08-04T19:30:08.031Z,2.47
2018-08-04T19:32:37.172Z,2.80
2018-08-04T19:35:06.396Z,2.60
2018-08-04T19:37:35.739Z,3.05
2018-08-04T19:40:05.053Z,2.95
2018-08-04T19:42:34.241Z,3.20
2018-08-04T19:45:03.426Z,2.92
2018-08-04T19:47:32.581Z,3.00
2018-08-04T19:50:01.761Z,3.75
2018-08-04T19:52:30.869Z,3.70
2018-08-04T19:55:00.046Z,3.20
2018-08-04T19:57:29.167Z,3.62
2018-08-04T19:59:58.332Z,2.90
2018-08-04T20:02:27.434Z,3.60
2018-08-04T20:04:56.703Z,3.30
2018-08-04T20:07:25.797Z,3.27
2018-08-04T20:09:54.939Z,3.67
2018-08-04T20:12:24.059Z,3.55
2018-08-04T20:14:53.307Z,3.50
2018-08-04T20:17:22.485Z,3.85
2018-08-04T20:19:51.564Z,4.03
2018-08-04T20:22:20.678Z,3.83
2018-08-04T20:24:49.833Z,4.17
2018-08-04T20:27:18.902Z,3.62
2018-08-04T20:29:48.013Z,3.98
2018-08-04T20:32:17.158Z,3.45
2018-08-04T20:34:46.484Z,3.90
2018-08-04T20:37:15.598Z,4.03
2018-08-04T20:39:44.712Z,3.67
2018-08-04T20:42:13.852Z,3.85
2018-08-04T20:44:43.141Z,3.80
2018-08-04T20:47:11.808Z,3.77
2018-08-04T20:49:40.983Z,4.05
2018-08-04T20:52:10.090Z,3.77
2018-08-04T20:54:39.270Z,4.25
2018-08-04T20:57:08.353Z,4.07
2018-08-04T20:59:37.449Z,4.10
2018-08-04T21:02:06.729Z,3.57
2018-08-04T21:04:36.717Z,3.90
2018-08-04T21:07:06.558Z,3.50
2018-08-04T21:09:35.748Z,3.65
2018-08-04T21:12:04.940Z,3.70
2018-08-04T21:14:33.969Z,4.03
2018-08-04T21:17:03.048Z,3.70
2018-08-04T21:19:32.240Z,3.90
2018-08-04T21:22:01.327Z,3.57
2018-08-04T21:24:30.520Z,4.20
2018-08-04T21:26:59.756Z,3.40
2018-08-04T21:29:29.013Z,3.80
2018-08-04T21:31:58.132Z,3.40
2018-08-04T21:34:27.314Z,3.93
2018-08-04T21:36:56.393Z,4.00
2018-08-04T21:39:25.708Z,3.83
2018-08-04T21:41:54.761Z,4.07
2018-08-04T21:44:23.929Z,4.33
2018-08-04T21:46:52.960Z,4.17
2018-08-04T21:49:21.658Z,3.70
2018-08-04T21:51:51.495Z,3.60
2018-08-04T21:54:21.331Z,4.20
2018-08-04T21:56:50.420Z,4.13
2018-08-04T21:59:19.611Z,3.90
2018-08-04T22:01:57.068Z,4.57
2018-08-04T22:04:26.636Z,4.37
2018-08-04T22:08:03.866Z,3.87
2018-08-04T22:10:33.052Z,3.87
2018-08-04T22:13:02.481Z,3.70
2018-08-04T22:15:31.700Z,4.10
2018-08-04T22:18:00.825Z,3.87
2018-08-04T22:20:30.397Z,4.17
2018-08-04T22:22:59.511Z,4.40
2018-08-04T22:25:29.945Z,3.77
2018-08-04T22:27:59.616Z,3.90
2018-08-04T22:30:28.752Z,3.90
2018-08-04T22:32:57.870Z,3.93
2018-08-04T22:35:27.337Z,3.63
2018-08-04T22:37:56.400Z,3.87
2018-08-04T22:40:25.601Z,3.80
2018-08-04T22:42:54.685Z,3.60
2018-08-04T22:45:53.805Z,3.80
2018-08-04T22:48:23.295Z,3.57
2018-08-04T22:50:52.401Z,3.50
2018-08-04T22:53:21.531Z,3.93
2018-08-04T22:55:50.670Z,3.17
2018-08-04T22:58:20.081Z,3.47
2018-08-04T23:00:49.240Z,3.73
2018-08-04T23:03:18.327Z,3.60
2018-08-04T23:05:47.463Z,3.20
2018-08-04T23:08:16.958Z,3.20
2018-08-04T23:10:46.265Z,2.87
2018-08-04T23:13:16.113Z,3.40
2018-08-04T23:15:45.255Z,3.57
2018-08-04T23:18:14.417Z,3.60
2018-08-04T23:20:43.560Z,3.20
2018-08-04T23:23:13.573Z,3.63
2018-08-04T23:25:42.681Z,3.90
2018-08-04T23:28:11.793Z,3.70
2018-08-04T23:30:40.951Z,3.40
2018-08-04T23:33:10.069Z,3.83
2018-08-04T23:35:39.204Z,3.97
2018-08-04T23:38:08.293Z,4.10
2018-08-04T23:40:37.458Z,4.00
2018-08-04T23:43:06.585Z,4.40
2018-08-04T23:45:35.688Z,3.90
2018-08-04T23:48:04.836Z,4.07
2018-08-04T23:50:33.966Z,4.10
2018-08-04T23:53:03.123Z,4.20
2018-08-04T23:55:32.257Z,3.97
2018-08-04T23:58:01.608Z,3.87
